Hannibal, Wisconsin
Current Conditions -  °F | °C
As of 7:35 PM on Monday 20 Oct 2014 (Local Time) from KRCX Reporting Station
Overcast Overcast  
Wind Chill: 49°   Ceiling: 4400
Heat Index: 49°   Visibility: 10mi
Dew Point: 42°   Wind: 3mph
Humidity: 75%   Direction: 330°NNW
Pressure: 30.06"   Gusts: NA
Location:  45.25°N, 90.79°W
Report Text: KRCX 210035Z AUTO 33003KT 10SM OVC044 10/05 A3006 RMK AO2 T00960053
Loading
Personal Weather Stations






























Interactive Weather Map
Tropical Storm Tracking
New forecast layout! Learn more

10-Day Weather Forecast

Advertisements
Track Severe Weather on mobile